Time;durP1;ratioP1;P1;durP2;ratioP2;P2;SDS_P1;SDS_P2;PMS_P1;PMS_P2;Temp;Humidity;BMP_temperature;BMP_pressure;BME280_temperature;BME280_humidity;BME280_pressure;Samples;Min_cycle;Max_cycle;Signal;HPM_P1;HPM_P2
2021/04/25 00:01:53;;;;;;;8.90;4.90;;;;;;;17.00;75.18;99749.63;4956887;28;20480;-68
2021/04/25 00:04:20;;;;;;;10.77;6.10;;;;;;;17.11;75.02;99766.97;4955087;28;20063;-71
2021/04/25 00:06:46;;;;;;;13.35;5.75;;;;;;;17.17;75.07;99768.41;4958672;28;20484;-73
2021/04/25 00:09:13;;;;;;;8.60;5.88;;;;;;;17.27;75.15;99767.19;4964361;28;20054;-73
2021/04/25 00:11:40;;;;;;;18.07;7.40;;;;;;;17.30;74.89;99760.84;4962434;28;20831;-77
2021/04/25 00:14:07;;;;;;;13.15;7.22;;;;;;;17.34;74.80;99767.44;4962706;28;20475;-76
2021/04/25 00:16:33;;;;;;;13.15;6.75;;;;;;;17.28;75.16;99752.72;4961195;28;20051;-77
2021/04/25 00:19:00;;;;;;;15.73;6.70;;;;;;;17.38;74.85;99767.59;4965026;28;20039;-74
2021/04/25 00:21:28;;;;;;;11.35;5.97;;;;;;;17.29;75.22;99782.56;4963394;28;20054;-70
2021/04/25 00:23:59;;;;;;;8.18;4.72;;;;;;;17.12;75.46;99771.41;4960665;28;20389;-71
2021/04/25 00:26:25;;;;;;;11.05;5.30;;;;;;;16.98;75.77;99753.94;4966504;28;20043;-67
2021/04/25 00:28:52;;;;;;;12.68;5.38;;;;;;;17.05;75.74;99773.97;4963519;28;20506;-67
2021/04/25 00:31:19;;;;;;;8.60;4.38;;;;;;;17.00;75.51;99754.44;4963316;28;20051;-68
2021/04/25 00:33:45;;;;;;;9.15;5.88;;;;;;;16.95;75.22;99755.44;4969907;28;20492;-68
2021/04/25 00:36:12;;;;;;;9.10;4.88;;;;;;;16.96;75.33;99750.66;4962746;28;20047;-67
2021/04/25 00:38:39;;;;;;;16.92;6.22;;;;;;;16.90;75.44;99752.03;4964356;28;20407;-67
2021/04/25 00:41:06;;;;;;;8.93;5.55;;;;;;;16.81;75.95;99738.78;4958902;28;20043;-68
2021/04/25 00:43:35;;;;;;;12.38;5.82;;;;;;;16.83;76.14;99746.94;4965268;28;20047;-68
2021/04/25 00:46:02;;;;;;;10.32;5.80;;;;;;;16.68;76.25;99737.03;4959897;28;20470;-68
2021/04/25 00:48:28;;;;;;;11.23;6.07;;;;;;;16.75;76.32;99745.81;4963508;28;20054;-70
2021/04/25 00:50:55;;;;;;;10.20;5.40;;;;;;;16.75;75.98;99742.16;4957623;28;20474;-70
2021/04/25 00:53:22;;;;;;;14.35;4.20;;;;;;;16.84;75.87;99733.66;4961693;28;20414;-72
2021/04/25 00:55:50;;;;;;;7.80;4.23;;;;;;;16.84;75.77;99728.84;4960381;28;20047;-69
2021/04/25 00:58:17;;;;;;;6.20;4.30;;;;;;;16.70;75.46;99700.06;4961403;28;20050;-69
2021/04/25 01:00:43;;;;;;;11.55;5.28;;;;;;;16.83;75.46;99717.91;4961342;28;20047;-72
2021/04/25 01:03:09;;;;;;;12.03;5.07;;;;;;;16.72;75.69;99695.72;4964029;28;20049;-67
2021/04/25 01:05:36;;;;;;;7.72;3.85;;;;;;;16.81;75.86;99710.59;4965361;28;20050;-68
2021/04/25 01:08:03;;;;;;;7.30;4.83;;;;;;;16.66;76.05;99699.91;4965109;28;20046;-66
2021/04/25 01:10:29;;;;;;;11.25;5.30;;;;;;;16.78;76.12;99731.03;4963782;28;20050;-67
2021/04/25 01:15:42;;;;;;;12.87;6.33;;;;;;;16.64;76.49;99733.25;4962102;28;20047;-65
2021/04/25 01:18:08;;;;;;;9.65;6.00;;;;;;;16.66;76.56;99714.00;4958238;28;20043;-69
2021/04/25 01:20:35;;;;;;;9.23;6.07;;;;;;;16.87;76.18;99718.88;4957069;28;20070;-68
2021/04/25 01:23:01;;;;;;;11.80;5.93;;;;;;;16.83;75.93;99706.63;4966161;28;20416;-69
2021/04/25 01:25:27;;;;;;;11.70;6.70;;;;;;;16.99;75.93;99719.78;4960927;28;20051;-68
2021/04/25 01:27:56;;;;;;;11.13;5.80;;;;;;;17.02;75.78;99701.31;4959217;28;20723;-68
2021/04/25 01:30:27;;;;;;;11.38;7.45;;;;;;;17.15;75.25;99707.84;4957699;28;20043;-66
2021/04/25 01:32:53;;;;;;;12.35;6.82;;;;;;;17.19;75.49;99706.81;4963573;28;20053;-67
2021/04/25 01:35:22;;;;;;;16.43;7.50;;;;;;;17.26;75.61;99718.38;4965036;28;20055;-66
2021/04/25 01:37:54;;;;;;;12.88;6.95;;;;;;;17.31;75.54;99711.69;4963232;28;20077;-65
2021/04/25 01:40:25;;;;;;;15.10;6.93;;;;;;;17.36;75.60;99707.81;4961758;28;20126;-66
2021/04/25 01:42:53;;;;;;;14.57;6.28;;;;;;;17.30;75.48;99715.69;4965559;28;20133;-67
2021/04/25 01:45:19;;;;;;;15.35;5.85;;;;;;;16.87;75.26;99635.09;4961454;28;20373;-67
2021/04/25 01:47:47;;;;;;;13.57;5.53;;;;;;;17.35;75.29;99697.72;4964398;28;20042;-71
2021/04/25 01:50:19;;;;;;;12.00;6.53;;;;;;;17.27;75.01;99669.25;4968437;28;20050;-69
2021/04/25 01:52:46;;;;;;;13.60;6.35;;;;;;;17.42;75.32;99700.78;4959948;28;20058;-69
2021/04/25 01:55:14;;;;;;;10.02;5.10;;;;;;;17.29;75.33;99683.81;4959185;28;20064;-65
2021/04/25 01:57:40;;;;;;;11.48;5.20;;;;;;;17.27;75.23;99666.41;4957772;28;20043;-65
2021/04/25 02:00:10;;;;;;;16.70;6.43;;;;;;;17.35;75.34;99677.97;4961859;28;20054;-65
2021/04/25 02:02:36;;;;;;;11.68;5.72;;;;;;;17.37;74.91;99675.63;4959027;28;20047;-66
2021/04/25 02:05:03;;;;;;;14.63;6.47;;;;;;;17.20;74.93;99631.47;4957585;28;20047;-67
2021/04/25 02:07:29;;;;;;;10.30;6.22;;;;;;;17.52;75.06;99672.13;4960202;28;20050;-67
2021/04/25 02:09:56;;;;;;;12.07;5.22;;;;;;;17.51;75.00;99673.31;4961421;28;20488;-68
2021/04/25 02:12:22;;;;;;;12.40;4.65;;;;;;;17.50;75.38;99680.13;4959331;28;20059;-67
2021/04/25 02:14:48;;;;;;;14.85;5.45;;;;;;;17.32;75.32;99656.91;4961511;28;20042;-67
2021/04/25 02:17:15;;;;;;;10.52;5.63;;;;;;;17.29;75.40;99658.41;4969439;28;20385;-67
2021/04/25 02:19:41;;;;;;;7.28;4.57;;;;;;;17.33;75.35;99664.19;4959817;28;20055;-66
2021/04/25 02:22:07;;;;;;;14.90;5.70;;;;;;;17.28;74.88;99656.78;4957086;28;20055;-66
2021/04/25 02:24:33;;;;;;;11.75;6.65;;;;;;;17.41;75.22;99660.47;4961037;28;20043;-66
2021/04/25 02:27:02;;;;;;;12.77;7.85;;;;;;;17.45;74.91;99667.06;4966570;28;20043;-67
2021/04/25 02:29:28;;;;;;;12.60;7.28;;;;;;;17.31;74.92;99637.50;4958737;28;20046;-68
2021/04/25 02:31:54;;;;;;;12.93;7.75;;;;;;;17.46;74.99;99665.06;4962110;28;20484;-66
2021/04/25 02:34:23;;;;;;;11.57;6.72;;;;;;;17.43;74.90;99646.81;4960009;28;20503;-66
2021/04/25 02:36:50;;;;;;;18.67;8.25;;;;;;;17.50;75.25;99654.72;4958597;28;20126;-67
2021/04/25 02:39:18;;;;;;;13.15;7.82;;;;;;;17.46;75.05;99642.47;4959070;28;20117;-66
2021/04/25 02:41:45;;;;;;;16.55;7.47;;;;;;;17.49;75.07;99638.94;4961376;28;20051;-67
2021/04/25 02:44:11;;;;;;;13.07;7.35;;;;;;;17.52;74.96;99630.59;4958326;28;20051;-66
2021/04/25 02:46:39;;;;;;;14.70;6.85;;;;;;;17.55;75.41;99631.91;4956365;28;20055;-67
2021/04/25 02:49:05;;;;;;;13.27;7.30;;;;;;;17.48;74.89;99626.84;4965279;28;20046;-67
2021/04/25 02:51:31;;;;;;;13.55;6.18;;;;;;;17.56;75.43;99630.72;4959489;28;20448;-67
2021/04/25 02:53:58;;;;;;;23.73;8.73;;;;;;;17.56;75.38;99622.25;4961000;28;20456;-67
2021/04/25 02:56:24;;;;;;;12.15;7.22;;;;;;;17.59;75.18;99627.22;4964179;28;20492;-68
2021/04/25 02:58:50;;;;;;;11.60;7.05;;;;;;;17.56;75.15;99613.78;4960603;28;20043;-68
2021/04/25 03:01:19;;;;;;;14.43;7.13;;;;;;;17.62;74.76;99614.41;4958603;28;20137;-68
2021/04/25 03:03:46;;;;;;;18.73;8.85;;;;;;;17.67;75.21;99611.34;4956522;28;20051;-69
2021/04/25 03:06:13;;;;;;;16.30;8.20;;;;;;;17.60;75.07;99611.91;4961897;28;20219;-70
2021/04/25 03:08:40;;;;;;;19.70;8.13;;;;;;;17.62;75.11;99615.22;4960226;28;20055;-70
2021/04/25 03:11:06;;;;;;;17.40;7.82;;;;;;;17.53;75.18;99594.72;4961660;28;20407;-70
2021/04/25 03:13:42;;;;;;;12.35;7.25;;;;;;;17.43;74.98;99572.59;4960451;28;20141;-69
2021/04/25 03:16:08;;;;;;;14.18;7.97;;;;;;;17.47;75.22;99571.56;4959932;28;20050;-71
2021/04/25 03:18:34;;;;;;;19.45;11.73;;;;;;;17.54;75.04;99602.03;4962776;28;20049;-70
2021/04/25 03:21:01;;;;;;;32.72;18.33;;;;;;;17.44;75.23;99586.38;4966425;28;20043;-67
2021/04/25 03:23:27;;;;;;;26.65;12.85;;;;;;;17.54;75.14;99610.53;4963789;28;20047;-66
2021/04/25 03:25:53;;;;;;;21.30;12.35;;;;;;;17.56;75.35;99604.50;4959583;28;20065;-65
2021/04/25 03:28:20;;;;;;;20.75;10.98;;;;;;;17.49;75.18;99594.59;4957829;28;20048;-63
2021/04/25 03:30:47;;;;;;;18.52;9.80;;;;;;;17.53;75.34;99603.19;4964049;28;20051;-63
2021/04/25 03:33:13;;;;;;;15.95;8.27;;;;;;;17.50;75.33;99613.22;4956776;28;20054;-64
2021/04/25 03:35:40;;;;;;;16.50;9.40;;;;;;;17.50;75.24;99601.06;4959815;28;20046;-67
2021/04/25 03:38:06;;;;;;;16.73;9.48;;;;;;;17.50;75.14;99603.91;4962620;28;20054;-75
2021/04/25 03:40:32;;;;;;;15.20;8.18;;;;;;;17.35;75.32;99567.91;4957172;28;20050;-71
2021/04/25 03:42:59;;;;;;;13.77;9.35;;;;;;;17.47;75.02;99582.00;4958208;28;20057;-72
2021/04/25 03:45:25;;;;;;;12.43;7.57;;;;;;;17.36;75.45;99578.00;4961226;28;20053;-74
2021/04/25 03:47:52;;;;;;;12.43;6.28;;;;;;;17.28;75.32;99593.88;4960976;28;20053;-69
2021/04/25 03:50:24;;;;;;;14.23;6.22;;;;;;;17.07;75.54;99601.56;4961585;28;20047;-65
2021/04/25 03:52:51;;;;;;;16.08;6.35;;;;;;;16.85;75.94;99597.13;4955320;28;20047;-68
2021/04/25 03:55:19;;;;;;;15.13;6.90;;;;;;;16.56;76.82;99594.03;4956260;28;20047;-66
2021/04/25 03:57:45;;;;;;;12.60;6.43;;;;;;;16.54;76.91;99585.06;4959806;28;20042;-77
2021/04/25 04:00:13;;;;;;;15.38;7.40;;;;;;;16.64;76.14;99564.09;4958853;28;20043;-67
2021/04/25 04:02:40;;;;;;;14.15;8.05;;;;;;;16.70;76.35;99574.00;4958890;28;20055;-67
2021/04/25 04:05:07;;;;;;;15.70;7.90;;;;;;;16.56;76.65;99573.47;4939317;28;20058;-73
2021/04/25 04:07:33;;;;;;;12.13;7.70;;;;;;;16.51;76.93;99579.31;4960862;28;20046;-69
2021/04/25 04:10:00;;;;;;;8.83;6.10;;;;;;;16.47;77.02;99581.16;4954577;28;20054;-65
2021/04/25 04:12:26;;;;;;;10.80;6.05;;;;;;;16.37;77.37;99587.22;4958273;28;20047;-65
2021/04/25 04:14:52;;;;;;;7.07;5.22;;;;;;;16.23;77.82;99588.31;4966075;28;20047;-68
2021/04/25 04:17:20;;;;;;;9.43;5.80;;;;;;;16.19;78.10;99592.16;4958669;28;20441;-75
2021/04/25 04:19:46;;;;;;;9.70;5.07;;;;;;;16.01;78.33;99595.09;4960130;28;20038;-69
2021/04/25 04:22:13;;;;;;;12.03;5.83;;;;;;;15.95;78.80;99604.06;4958811;28;20054;-70
2021/04/25 04:24:39;;;;;;;11.80;6.47;;;;;;;15.84;78.93;99604.44;4960549;28;20047;-70
2021/04/25 04:27:06;;;;;;;8.13;4.63;;;;;;;15.91;78.70;99598.28;4958920;28;20047;-71
2021/04/25 04:29:33;;;;;;;7.73;5.17;;;;;;;15.84;78.65;99587.56;4961164;28;20137;-68
2021/04/25 04:32:00;;;;;;;9.20;6.33;;;;;;;15.81;78.72;99573.34;4954058;28;20416;-69
2021/04/25 04:34:26;;;;;;;11.13;5.77;;;;;;;15.94;78.61;99583.53;4957109;28;20176;-70
2021/04/25 04:36:56;;;;;;;9.73;5.00;;;;;;;15.82;78.79;99566.53;4952626;28;20434;-67
2021/04/25 04:39:25;;;;;;;7.77;5.23;;;;;;;15.80;78.76;99564.06;4962736;28;20065;-73
2021/04/25 04:41:52;;;;;;;11.27;5.20;;;;;;;15.86;78.82;99579.59;4955238;28;20055;-70
2021/04/25 04:44:19;;;;;;;10.47;5.90;;;;;;;15.62;78.94;99535.16;4959309;28;20067;-69
2021/04/25 04:46:45;;;;;;;12.70;6.43;;;;;;;15.86;78.65;99568.34;4966794;28;20100;-69
2021/04/25 04:49:11;;;;;;;10.50;4.90;;;;;;;15.96;78.40;99563.47;4961436;28;20051;-70
2021/04/25 04:51:40;;;;;;;9.77;6.03;;;;;;;16.06;78.01;99563.88;4961795;28;20102;-70
2021/04/25 04:54:07;;;;;;;8.17;5.13;;;;;;;16.05;77.85;99550.97;4955533;28;20043;-72
2021/04/25 04:56:33;;;;;;;10.60;6.07;;;;;;;15.87;77.55;99519.31;4966250;28;20074;-71
2021/04/25 04:59:05;;;;;;;12.63;5.77;;;;;;;16.20;77.83;99566.44;4962738;28;20044;-73
2021/04/25 05:01:31;;;;;;;14.53;5.60;;;;;;;16.27;77.85;99566.75;4964042;28;20393;-74
2021/04/25 05:03:58;;;;;;;14.10;6.73;;;;;;;16.29;77.60;99561.59;4957017;28;20500;-74
2021/04/25 05:06:24;;;;;;;14.63;6.10;;;;;;;16.30;77.43;99551.94;4963925;28;20128;-70
2021/04/25 05:08:50;;;;;;;13.40;7.00;;;;;;;16.31;77.38;99539.53;4962788;28;20058;-68
2021/04/25 05:11:17;;;;;;;14.57;7.07;;;;;;;16.39;77.49;99539.81;4958793;28;20061;-68
2021/04/25 05:13:43;;;;;;;16.87;7.53;;;;;;;16.43;77.33;99532.31;4960166;28;20062;-67
2021/04/25 05:16:09;;;;;;;12.30;6.23;;;;;;;16.59;77.45;99527.69;4960531;28;20043;-68
2021/04/25 05:18:38;;;;;;;13.35;7.25;;;;;;;16.64;77.36;99526.66;4964302;28;20051;-68
2021/04/25 05:21:05;;;;;;;12.27;7.87;;;;;;;16.66;77.13;99530.78;4967017;28;20079;-68
2021/04/25 05:23:32;;;;;;;14.57;7.30;;;;;;;16.70;76.82;99536.53;4959795;28;20102;-68
2021/04/25 05:25:59;;;;;;;12.93;7.47;;;;;;;16.72;76.82;99526.56;4958374;28;20411;-70
2021/04/25 05:28:26;;;;;;;16.90;6.67;;;;;;;16.63;76.63;99500.47;4966550;28;20056;-69
2021/04/25 05:30:53;;;;;;;11.83;6.50;;;;;;;16.71;76.62;99521.28;4960701;28;20500;-70
2021/04/25 05:33:19;;;;;;;12.30;6.70;;;;;;;16.48;76.52;99492.66;4964942;28;20058;-69
2021/04/25 05:35:45;;;;;;;11.15;6.80;;;;;;;16.69;76.42;99521.63;4961526;28;20051;-72
2021/04/25 05:38:12;;;;;;;11.25;7.00;;;;;;;16.69;76.96;99520.81;4962938;28;20069;-67
2021/04/25 05:40:38;;;;;;;12.77;7.70;;;;;;;16.75;76.49;99534.38;4960905;28;20039;-68
2021/04/25 05:43:04;;;;;;;22.63;7.93;;;;;;;16.76;76.55;99544.47;4961921;28;20057;-69
2021/04/25 05:45:30;;;;;;;13.67;6.70;;;;;;;16.81;76.62;99561.16;4963204;28;20042;-70
2021/04/25 05:47:58;;;;;;;15.60;7.55;;;;;;;16.84;76.45;99559.66;4959943;28;20054;-72
2021/04/25 05:50:31;;;;;;;16.63;7.38;;;;;;;16.85;76.35;99554.81;4961033;28;20133;-68
2021/04/25 05:52:58;;;;;;;13.98;6.90;;;;;;;16.78;76.72;99559.03;4959513;28;20043;-68
2021/04/25 05:55:24;;;;;;;16.67;7.55;;;;;;;16.79;76.76;99577.63;4958798;28;20047;-72
2021/04/25 05:57:52;;;;;;;12.48;7.85;;;;;;;16.76;76.54;99580.31;4963841;28;20439;-73
2021/04/25 06:00:22;;;;;;;12.67;6.60;;;;;;;16.74;76.49;99579.78;4967788;28;20070;-75
2021/04/25 06:02:55;;;;;;;8.85;4.80;;;;;;;16.65;76.73;99593.97;4966426;28;20078;-74
2021/04/25 06:05:22;;;;;;;11.05;5.68;;;;;;;16.34;77.39;99606.47;4961894;28;20046;-73
2021/04/25 06:07:52;;;;;;;6.35;3.83;;;;;;;15.88;79.15;99622.31;4960798;28;20059;-72
2021/04/25 06:10:19;;;;;;;7.50;4.07;;;;;;;15.60;79.89;99609.84;4961828;28;20062;-70
2021/04/25 06:12:51;;;;;;;5.17;3.07;;;;;;;15.32;80.02;99572.88;4962240;28;20055;-73
2021/04/25 06:15:22;;;;;;;9.97;4.70;;;;;;;15.45;80.49;99597.13;4965745;28;20053;-73
2021/04/25 06:17:49;;;;;;;10.87;4.80;;;;;;;15.35;80.62;99606.78;4954684;28;20047;-68
2021/04/25 06:20:18;;;;;;;4.90;3.40;;;;;;;15.23;81.00;99601.00;4963601;28;20101;-74
2021/04/25 06:22:45;;;;;;;6.50;4.07;;;;;;;15.22;81.46;99621.88;4961739;28;20043;-75
2021/04/25 06:25:16;;;;;;;9.50;4.57;;;;;;;15.05;81.88;99616.28;4958025;28;20058;-69
2021/04/25 06:27:42;;;;;;;9.27;3.90;;;;;;;14.99;81.98;99617.59;4960821;28;20407;-71
2021/04/25 06:30:11;;;;;;;3.73;2.43;;;;;;;15.20;81.65;99632.63;4955943;28;20054;-69
2021/04/25 06:32:37;;;;;;;0.53;0.50;;;;;;;15.24;81.34;99639.22;4963449;28;20065;-67
2021/04/25 06:35:05;;;;;;;4.80;1.80;;;;;;;15.23;81.12;99646.00;4959281;28;20055;-71
2021/04/25 06:37:32;;;;;;;1.53;1.03;;;;;;;15.22;80.99;99635.09;4960493;28;20129;-71
2021/04/25 06:39:58;;;;;;;2.07;1.60;;;;;;;15.21;81.01;99641.88;4941192;28;20053;-74
2021/04/25 06:42:24;;;;;;;1.60;1.30;;;;;;;15.29;81.32;99650.31;4965344;28;20515;-74
2021/04/25 06:44:52;;;;;;;1.47;1.23;;;;;;;15.22;80.66;99646.34;4965023;28;20103;-66
2021/04/25 06:47:18;;;;;;;1.27;0.97;;;;;;;15.21;80.77;99658.75;4966801;28;20503;-66
2021/04/25 06:49:45;;;;;;;1.33;1.03;;;;;;;15.22;80.79;99660.41;4964239;28;20039;-64
2021/04/25 06:52:12;;;;;;;1.33;0.80;;;;;;;15.20;80.95;99665.53;4959881;28;20408;-71
2021/04/25 06:54:40;;;;;;;1.57;0.53;;;;;;;15.19;80.94;99652.66;4961870;28;20051;-76
2021/04/25 06:57:07;;;;;;;2.83;1.50;;;;;;;15.19;80.96;99659.09;4965528;28;20496;-75
2021/04/25 06:59:33;;;;;;;0.30;0.30;;;;;;;15.07;81.25;99648.50;4962798;28;20420;-65
2021/04/25 07:02:00;;;;;;;1.00;0.93;;;;;;;15.09;81.26;99662.25;4964420;28;20519;-71
2021/04/25 07:04:26;;;;;;;1.17;0.93;;;;;;;14.96;81.59;99652.00;4960562;28;20416;-72
2021/04/25 07:06:53;;;;;;;0.40;0.40;;;;;;;15.01;81.50;99665.88;4960239;28;20137;-71
2021/04/25 07:09:19;;;;;;;1.50;0.83;;;;;;;14.89;81.73;99658.13;4957882;28;20159;-73
2021/04/25 07:11:45;;;;;;;1.77;0.90;;;;;;;14.93;81.81;99667.53;4959491;28;20097;-74
2021/04/25 07:14:11;;;;;;;3.10;1.30;;;;;;;14.98;81.80;99667.38;4962498;28;20461;-75
2021/04/25 07:16:38;;;;;;;4.07;2.20;;;;;;;15.00;81.93;99664.22;4961510;28;20047;-73
2021/04/25 07:19:04;;;;;;;0.50;0.50;;;;;;;14.90;81.74;99648.53;4962601;28;20062;-71
2021/04/25 07:21:31;;;;;;;2.03;1.70;;;;;;;14.93;81.71;99659.09;4961757;28;20051;-72
2021/04/25 07:23:57;;;;;;;0.50;0.50;;;;;;;14.89;81.77;99658.94;4959687;28;20053;-72
2021/04/25 07:26:24;;;;;;;3.63;2.33;;;;;;;14.97;82.10;99679.78;4962290;28;20786;-71
2021/04/25 07:28:51;;;;;;;3.13;1.80;;;;;;;15.03;82.05;99680.44;4966430;28;20047;-72
2021/04/25 07:31:19;;;;;;;5.93;1.50;;;;;;;14.99;81.90;99651.34;4964881;28;20050;-72
2021/04/25 07:33:46;;;;;;;3.93;2.07;;;;;;;15.15;81.68;99686.22;4962572;28;20051;-72
2021/04/25 07:36:13;;;;;;;3.00;1.97;;;;;;;15.19;81.58;99686.41;4960169;28;20461;-70
2021/04/25 07:38:41;;;;;;;4.37;1.93;;;;;;;15.18;81.48;99677.13;4955723;28;20066;-72
2021/04/25 07:41:08;;;;;;;2.50;1.50;;;;;;;15.33;81.53;99689.84;4959600;28;20047;-73
2021/04/25 07:43:35;;;;;;;2.97;1.57;;;;;;;15.34;81.42;99692.31;4959783;28;20051;-72
2021/04/25 07:46:05;;;;;;;9.63;2.55;;;;;;;15.43;81.29;99697.13;4963933;28;20121;-74
2021/04/25 07:48:31;;;;;;;4.67;1.60;;;;;;;15.41;81.17;99697.44;4962434;28;20043;-73
2021/04/25 07:51:00;;;;;;;3.33;1.40;;;;;;;15.38;81.38;99693.31;4964894;28;20423;-72
2021/04/25 07:53:27;;;;;;;6.40;1.70;;;;;;;15.30;81.03;99682.88;4961691;28;20114;-72
2021/04/25 07:55:54;;;;;;;4.60;2.17;;;;;;;15.37;81.16;99697.28;4960454;28;20068;-73
2021/04/25 07:58:20;;;;;;;1.80;1.10;;;;;;;15.33;81.13;99703.91;4961253;28;20047;-72
2021/04/25 08:00:46;;;;;;;2.93;0.87;;;;;;;15.31;81.48;99698.59;4962500;28;20322;-72
2021/04/25 08:03:12;;;;;;;1.27;1.00;;;;;;;15.28;81.31;99710.53;4959480;28;20057;-71
2021/04/25 08:05:39;;;;;;;3.43;1.80;;;;;;;15.26;81.55;99707.22;4963137;28;20043;-72
2021/04/25 08:08:06;;;;;;;2.27;1.43;;;;;;;15.12;81.55;99689.72;4962240;28;20533;-72
2021/04/25 08:10:33;;;;;;;1.43;0.80;;;;;;;15.23;81.39;99713.50;4961639;28;20054;-71
2021/04/25 08:12:59;;;;;;;6.63;1.60;;;;;;;15.28;81.49;99699.28;4955714;28;20079;-72
2021/04/25 08:15:25;;;;;;;2.20;1.63;;;;;;;15.30;81.49;99702.59;4957164;28;20449;-71
2021/04/25 08:17:53;;;;;;;2.67;1.27;;;;;;;15.24;81.33;99692.66;4957747;28;20101;-70
2021/04/25 08:20:19;;;;;;;0.80;0.80;;;;;;;15.34;81.43;99708.38;4962402;28;20137;-72
2021/04/25 08:22:45;;;;;;;1.23;0.87;;;;;;;15.25;81.43;99710.38;4959507;28;20051;-71
2021/04/25 08:25:12;;;;;;;4.13;0.93;;;;;;;15.12;81.36;99684.91;4956283;28;20098;-71
2021/04/25 08:27:41;;;;;;;0.50;0.50;;;;;;;15.03;81.59;99683.25;4961492;28;20051;-72
2021/04/25 08:30:08;;;;;;;0.77;0.70;;;;;;;15.05;81.46;99659.28;4970773;28;20459;-72
2021/04/25 08:32:35;;;;;;;1.67;0.90;;;;;;;15.20;81.36;99679.59;4967028;28;20058;-74
2021/04/25 08:35:02;;;;;;;1.20;0.67;;;;;;;15.22;81.33;99692.19;4961053;28;20046;-72
2021/04/25 08:37:29;;;;;;;2.27;1.03;;;;;;;15.20;81.42;99704.91;4961008;28;20634;-70
2021/04/25 08:39:55;;;;;;;0.70;0.70;;;;;;;15.18;81.20;99710.88;4960511;28;20078;-70
2021/04/25 08:42:21;;;;;;;1.20;0.80;;;;;;;15.13;81.48;99709.03;4956830;28;20493;-70
2021/04/25 08:44:48;;;;;;;0.77;0.77;;;;;;;15.05;81.53;99717.50;4966417;28;20414;-71
2021/04/25 08:47:15;;;;;;;3.03;0.80;;;;;;;14.99;81.45;99696.31;4963949;28;20051;-70
2021/04/25 08:49:47;;;;;;;1.40;1.07;;;;;;;14.95;81.46;99689.72;4965502;28;20053;-71
2021/04/25 08:52:13;;;;;;;9.50;1.13;;;;;;;14.98;81.58;99689.06;4961198;28;20492;-73
2021/04/25 08:54:41;;;;;;;1.17;0.73;;;;;;;14.92;81.68;99671.53;4960899;28;20460;-70
2021/04/25 08:57:08;;;;;;;1.90;0.87;;;;;;;15.05;81.67;99695.00;4965622;28;20066;-71
2021/04/25 08:59:34;;;;;;;0.73;0.50;;;;;;;15.05;81.48;99709.06;4960012;28;20059;-73
2021/04/25 09:02:01;;;;;;;0.60;0.50;;;;;;;14.97;81.24;99715.50;4964885;28;20043;-70
2021/04/25 09:04:27;;;;;;;0.30;0.30;;;;;;;14.95;81.18;99723.44;4964922;28;20050;-69
2021/04/25 09:07:05;;;;;;;0.40;0.40;;;;;;;14.86;81.46;99732.69;4962445;28;20085;-69
2021/04/25 09:09:47;;;;;;;0.33;0.30;;;;;;;14.72;81.98;99708.72;4964594;28;20039;-69
2021/04/25 09:12:39;;;;;;;1.70;0.93;;;;;;;14.78;81.97;99691.34;4961038;28;20050;-71
2021/04/25 09:15:34;;;;;;;3.23;1.50;;;;;;;14.84;82.07;99687.22;4960455;28;20075;-69
2021/04/25 09:18:02;;;;;;;1.63;1.00;;;;;;;14.84;81.87;99678.81;4961005;28;20054;-68
2021/04/25 09:20:50;;;;;;;1.90;1.33;;;;;;;14.86;82.48;99690.53;4962844;28;20426;-69
2021/04/25 09:23:24;;;;;;;2.00;1.60;;;;;;;14.88;81.95;99682.59;4966965;28;20129;-71
2021/04/25 09:25:56;;;;;;;0.80;0.67;;;;;;;14.87;81.90;99672.53;4962051;28;20043;-70
2021/04/25 09:28:22;;;;;;;2.10;1.13;;;;;;;14.83;81.69;99662.25;4963605;28;20057;-71
2021/04/25 09:31:02;;;;;;;1.90;1.03;;;;;;;14.87;81.89;99675.34;4962629;28;20044;-71
2021/04/25 09:33:47;;;;;;;2.83;1.23;;;;;;;14.80;81.98;99669.38;4956146;28;20063;-71
2021/04/25 09:36:19;;;;;;;6.93;1.67;;;;;;;14.74;81.80;99670.69;4959509;28;20051;-71
2021/04/25 09:38:46;;;;;;;2.73;0.63;;;;;;;14.74;81.76;99669.88;4963911;28;20151;-71
2021/04/25 09:41:32;;;;;;;0.90;0.77;;;;;;;14.69;81.77;99671.66;4958830;28;20047;-70
2021/04/25 09:44:00;;;;;;;1.67;0.83;;;;;;;14.41;81.69;99620.56;4967398;28;20047;-70
2021/04/25 09:46:51;;;;;;;1.80;1.10;;;;;;;14.74;82.05;99667.06;4961564;28;20057;-69
2021/04/25 09:49:44;;;;;;;1.73;0.97;;;;;;;14.81;82.04;99673.03;4964830;28;20178;-71
2021/04/25 09:52:13;;;;;;;1.00;0.60;;;;;;;14.78;81.86;99668.88;4960115;28;20541;-71
2021/04/25 09:54:40;;;;;;;1.55;1.13;;;;;;;14.79;82.06;99667.72;4966787;28;20107;-72
2021/04/25 09:57:27;;;;;;;0.50;0.50;;;;;;;14.88;81.98;99673.34;4965823;28;20051;-72
2021/04/25 09:59:56;;;;;;;1.40;0.77;;;;;;;14.84;81.74;99667.56;4968957;28;20051;-72
2021/04/25 10:02:22;;;;;;;0.70;0.47;;;;;;;14.96;81.78;99688.56;4964814;28;20051;-72
2021/04/25 10:04:49;;;;;;;1.13;0.73;;;;;;;14.97;81.62;99681.75;4960485;28;20061;-72
2021/04/25 10:07:15;;;;;;;3.07;1.10;;;;;;;14.82;82.15;99678.28;4965285;28;20121;-71
2021/04/25 10:09:42;;;;;;;2.53;1.13;;;;;;;14.82;81.98;99664.25;4958500;28;20047;-72
2021/04/25 10:12:08;;;;;;;4.00;2.07;;;;;;;14.71;82.08;99662.94;4962459;28;20046;-72
2021/04/25 10:14:35;;;;;;;2.83;1.20;;;;;;;14.67;82.32;99657.13;4959611;28;20054;-72
2021/04/25 10:17:03;;;;;;;3.13;1.87;;;;;;;14.70;82.31;99658.47;4963782;28;20046;-74
2021/04/25 10:19:30;;;;;;;6.37;2.10;;;;;;;14.80;82.27;99660.94;4958603;28;20456;-70
2021/04/25 10:21:59;;;;;;;5.40;2.40;;;;;;;14.89;82.15;99663.75;4960811;28;20043;-71
2021/04/25 10:24:25;;;;;;;8.30;3.00;;;;;;;14.83;82.09;99620.91;4964691;28;20043;-71
2021/04/25 10:27:10;;;;;;;7.00;3.07;;;;;;;15.04;81.96;99607.03;4961083;28;20500;-70
2021/04/25 10:29:54;;;;;;;8.63;4.03;;;;;;;15.40;81.75;99639.53;4959624;28;22682;-71
2021/04/25 10:32:21;;;;;;;5.97;3.30;;;;;;;15.49;81.91;99643.16;4960146;28;20059;-70
2021/04/25 10:35:08;;;;;;;5.97;2.87;;;;;;;15.36;82.45;99630.94;4961128;28;20046;-71
2021/04/25 10:37:39;;;;;;;5.30;2.77;;;;;;;15.60;82.08;99626.72;4959944;28;20479;-71
2021/04/25 10:40:24;;;;;;;8.33;4.10;;;;;;;15.65;82.27;99630.16;4957365;28;20348;-72
2021/04/25 10:42:55;;;;;;;9.53;3.90;;;;;;;15.78;82.30;99639.56;4961868;28;20047;-68
2021/04/25 10:45:28;;;;;;;7.77;4.03;;;;;;;15.67;81.91;99581.19;4965976;28;20054;-69
2021/04/25 10:48:24;;;;;;;7.28;3.60;;;;;;;16.31;82.04;99651.41;4963945;28;20167;-65
2021/04/25 10:51:13;;;;;;;8.27;4.43;;;;;;;16.80;81.80;99646.09;4956169;28;20157;-69
2021/04/25 10:53:43;;;;;;;5.82;2.92;;;;;;;17.00;81.83;99647.25;4963886;28;20047;-69
2021/04/25 10:56:16;;;;;;;5.65;3.05;;;;;;;17.09;81.39;99656.44;4962415;28;20448;-68
2021/04/25 10:58:47;;;;;;;4.47;2.63;;;;;;;17.02;81.08;99640.09;4965737;28;20047;-70
2021/04/25 11:01:40;;;;;;;6.18;2.83;;;;;;;17.07;80.86;99632.59;4961593;28;20420;-68
2021/04/25 11:04:07;;;;;;;6.10;3.67;;;;;;;16.98;80.28;99616.56;4963437;28;20054;-68
2021/04/25 11:06:34;;;;;;;5.53;3.10;;;;;;;16.92;80.52;99608.66;4960778;28;20058;-67
2021/04/25 11:09:01;;;;;;;4.13;2.78;;;;;;;17.01;80.25;99629.16;4960556;28;20042;-66
2021/04/25 11:11:35;;;;;;;7.57;3.42;;;;;;;17.10;79.98;99631.91;4962044;28;20047;-66
2021/04/25 11:14:05;;;;;;;7.63;3.78;;;;;;;16.95;79.65;99607.97;4962090;28;20413;-68
2021/04/25 11:16:35;;;;;;;5.70;3.75;;;;;;;16.82;79.40;99612.75;4962701;28;20531;-68
2021/04/25 11:19:12;;;;;;;;;;;;;;;17.04;79.15;99622.84;4966307;28;20047;-69
2021/04/25 11:21:53;;;;;;;6.85;3.92;;;;;;;17.24;79.71;99607.03;4958584;28;19982;-69
2021/04/25 11:24:22;;;;;;;8.55;4.43;;;;;;;17.50;79.68;99623.66;4962264;28;20051;-68
2021/04/25 11:26:55;;;;;;;5.53;3.50;;;;;;;17.80;79.48;99606.56;4960728;28;20496;-69
2021/04/25 11:29:37;;;;;;;5.25;3.35;;;;;;;18.29;79.56;99600.88;4956342;28;20053;-69
2021/04/25 11:32:04;;;;;;;6.03;3.38;;;;;;;18.73;78.87;99595.38;4967189;28;20055;-69
2021/04/25 11:34:34;;;;;;;5.38;3.20;;;;;;;19.15;78.10;99607.94;4956246;28;20146;-70
2021/04/25 11:37:13;;;;;;;5.40;2.53;;;;;;;19.25;78.10;99598.13;4959739;28;20093;-72
2021/04/25 11:39:41;;;;;;;3.50;2.70;;;;;;;19.52;77.13;99602.09;4958767;28;20051;-70